Anahola, Hawaii
Current Conditions -  °F | °C
As of 7:18 AM on Saturday 25 Oct 2014 (Local Time) from PHLI Reporting Station
Broken Clouds Broken Clouds  
Wind Chill: 79°   Ceiling: 2200
Heat Index: 82°   Visibility: 10mi
Dew Point: 72°   Wind: 9mph
Humidity: 78%   Direction: 90°E
Pressure: 30.04"   Gusts: NA
Location:  22.14°N, 159.31°W
Report Text: PHLI 251718Z AUTO 09008KT 10SM BKN022 BKN027 26/22 A3004 RMK AO2 TSNO
Loading
Personal Weather Stations






























Interactive Weather Map
Tropical Storm Tracking
New forecast layout! Learn more

10-Day Weather Forecast

Advertisements
Track Severe Weather on mobile